sensor_id;sensor_type;location;lat;lon;timestamp;P1;durP1;ratioP1;P2;durP2;ratioP2
25649;SDS011;13505;45.196;5.696;2022-12-29T05:03:16;14.95;;;8.45;;
25649;SDS011;13505;45.196;5.696;2022-12-29T05:08:06;14.05;;;7.70;;
25649;SDS011;13505;45.196;5.696;2022-12-29T05:12:57;18.55;;;7.80;;
25649;SDS011;13505;45.196;5.696;2022-12-29T05:17:47;14.23;;;7.88;;
25649;SDS011;13505;45.196;5.696;2022-12-29T05:22:38;16.38;;;8.38;;
25649;SDS011;13505;45.196;5.696;2022-12-29T05:27:28;15.07;;;7.22;;
25649;SDS011;13505;45.196;5.696;2022-12-29T05:32:18;15.85;;;8.13;;
25649;SDS011;13505;45.196;5.696;2022-12-29T05:37:09;16.92;;;9.10;;
25649;SDS011;13505;45.196;5.696;2022-12-29T05:41:59;17.30;;;8.25;;
25649;SDS011;13505;45.196;5.696;2022-12-29T05:46:49;19.70;;;8.63;;
25649;SDS011;13505;45.196;5.696;2022-12-29T05:51:40;17.52;;;8.05;;
25649;SDS011;13505;45.196;5.696;2022-12-29T05:56:30;18.50;;;8.48;;
25649;SDS011;13505;45.196;5.696;2022-12-29T06:01:20;16.02;;;9.27;;
25649;SDS011;13505;45.196;5.696;2022-12-29T06:06:11;15.77;;;8.48;;
25649;SDS011;13505;45.196;5.696;2022-12-29T06:11:01;17.77;;;9.02;;
25649;SDS011;13505;45.196;5.696;2022-12-29T06:15:52;18.33;;;8.18;;
25649;SDS011;13505;45.196;5.696;2022-12-29T06:20:42;15.90;;;8.68;;
25649;SDS011;13505;45.196;5.696;2022-12-29T06:25:32;18.90;;;8.88;;
25649;SDS011;13505;45.196;5.696;2022-12-29T06:30:23;19.90;;;9.55;;
25649;SDS011;13505;45.196;5.696;2022-12-29T06:35:14;17.88;;;9.50;;
25649;SDS011;13505;45.196;5.696;2022-12-29T06:40:05;15.82;;;9.10;;
25649;SDS011;13505;45.196;5.696;2022-12-29T06:44:55;15.07;;;8.95;;
25649;SDS011;13505;45.196;5.696;2022-12-29T06:49:48;15.60;;;8.95;;
25649;SDS011;13505;45.196;5.696;2022-12-29T06:54:39;20.00;;;9.13;;
25649;SDS011;13505;45.196;5.696;2022-12-29T06:59:29;16.42;;;7.97;;
25649;SDS011;13505;45.196;5.696;2022-12-29T07:04:20;15.43;;;7.40;;
25649;SDS011;13505;45.196;5.696;2022-12-29T07:09:10;12.30;;;6.28;;
25649;SDS011;13505;45.196;5.696;2022-12-29T07:14:01;12.15;;;5.90;;
25649;SDS011;13505;45.196;5.696;2022-12-29T07:18:52;13.52;;;6.93;;
25649;SDS011;13505;45.196;5.696;2022-12-29T07:23:42;10.25;;;6.13;;
25649;SDS011;13505;45.196;5.696;2022-12-29T07:28:34;14.82;;;5.93;;
25649;SDS011;13505;45.196;5.696;2022-12-29T07:33:25;9.75;;;5.30;;
25649;SDS011;13505;45.196;5.696;2022-12-29T07:38:18;9.70;;;5.80;;
25649;SDS011;13505;45.196;5.696;2022-12-29T07:43:08;11.40;;;5.47;;
25649;SDS011;13505;45.196;5.696;2022-12-29T07:47:59;11.95;;;5.93;;
25649;SDS011;13505;45.196;5.696;2022-12-29T07:52:49;9.55;;;5.30;;
25649;SDS011;13505;45.196;5.696;2022-12-29T07:57:39;9.80;;;5.47;;
25649;SDS011;13505;45.196;5.696;2022-12-29T08:02:30;14.02;;;5.53;;
25649;SDS011;13505;45.196;5.696;2022-12-29T08:07:20;8.15;;;5.25;;
25649;SDS011;13505;45.196;5.696;2022-12-29T08:12:11;12.68;;;5.07;;
25649;SDS011;13505;45.196;5.696;2022-12-29T08:17:01;12.88;;;4.80;;
25649;SDS011;13505;45.196;5.696;2022-12-29T08:21:52;11.75;;;4.18;;
25649;SDS011;13505;45.196;5.696;2022-12-29T08:26:43;7.70;;;4.10;;
25649;SDS011;13505;45.196;5.696;2022-12-29T08:31:34;7.97;;;4.47;;
25649;SDS011;13505;45.196;5.696;2022-12-29T08:36:24;9.50;;;4.32;;
25649;SDS011;13505;45.196;5.696;2022-12-29T08:41:15;7.32;;;4.63;;
25649;SDS011;13505;45.196;5.696;2022-12-29T08:46:05;10.10;;;4.57;;
25649;SDS011;13505;45.196;5.696;2022-12-29T08:50:55;8.38;;;4.32;;
25649;SDS011;13505;45.196;5.696;2022-12-29T08:55:46;7.25;;;4.25;;
25649;SDS011;13505;45.196;5.696;2022-12-29T09:00:36;10.07;;;5.10;;
25649;SDS011;13505;45.196;5.696;2022-12-29T09:05:26;11.23;;;4.82;;
25649;SDS011;13505;45.196;5.696;2022-12-29T09:10:17;9.90;;;4.75;;
25649;SDS011;13505;45.196;5.696;2022-12-29T09:15:08;9.15;;;4.10;;
25649;SDS011;13505;45.196;5.696;2022-12-29T09:19:58;6.88;;;4.03;;
25649;SDS011;13505;45.196;5.696;2022-12-29T09:24:49;8.80;;;4.07;;
25649;SDS011;13505;45.196;5.696;2022-12-29T09:29:39;8.50;;;4.43;;
25649;SDS011;13505;45.196;5.696;2022-12-29T09:34:30;13.55;;;5.18;;
25649;SDS011;13505;45.196;5.696;2022-12-29T09:39:20;9.63;;;4.72;;
25649;SDS011;13505;45.196;5.696;2022-12-29T09:44:20;10.30;;;4.47;;
25649;SDS011;13505;45.196;5.696;2022-12-29T09:49:28;7.68;;;3.97;;
25649;SDS011;13505;45.196;5.696;2022-12-29T09:59:39;9.68;;;4.28;;
25649;SDS011;13505;45.196;5.696;2022-12-29T10:04:33;11.77;;;4.72;;
25649;SDS011;13505;45.196;5.696;2022-12-29T10:14:38;7.30;;;4.60;;
25649;SDS011;13505;45.196;5.696;2022-12-29T10:24:49;11.43;;;5.30;;
25649;SDS011;13505;45.196;5.696;2022-12-29T10:29:43;6.70;;;4.32;;
25649;SDS011;13505;45.196;5.696;2022-12-29T10:34:47;9.63;;;5.00;;
25649;SDS011;13505;45.196;5.696;2022-12-29T10:39:49;7.65;;;4.47;;
25649;SDS011;13505;45.196;5.696;2022-12-29T10:44:41;9.02;;;4.50;;
25649;SDS011;13505;45.196;5.696;2022-12-29T10:49:32;6.82;;;3.80;;
25649;SDS011;13505;45.196;5.696;2022-12-29T10:54:38;8.88;;;4.03;;
25649;SDS011;13505;45.196;5.696;2022-12-29T10:59:51;11.77;;;5.15;;
25649;SDS011;13505;45.196;5.696;2022-12-29T11:04:59;15.77;;;4.15;;
25649;SDS011;13505;45.196;5.696;2022-12-29T11:09:54;7.35;;;4.20;;
25649;SDS011;13505;45.196;5.696;2022-12-29T11:14:44;7.97;;;4.60;;
25649;SDS011;13505;45.196;5.696;2022-12-29T11:19:34;5.45;;;3.85;;
25649;SDS011;13505;45.196;5.696;2022-12-29T11:24:26;7.57;;;3.92;;
25649;SDS011;13505;45.196;5.696;2022-12-29T11:29:22;12.95;;;4.28;;
25649;SDS011;13505;45.196;5.696;2022-12-29T11:34:25;9.48;;;4.57;;
25649;SDS011;13505;45.196;5.696;2022-12-29T11:44:44;11.45;;;4.43;;
25649;SDS011;13505;45.196;5.696;2022-12-29T11:49:37;7.85;;;4.20;;
25649;SDS011;13505;45.196;5.696;2022-12-29T11:54:32;6.93;;;4.32;;
25649;SDS011;13505;45.196;5.696;2022-12-29T12:04:17;9.27;;;4.15;;
25649;SDS011;13505;45.196;5.696;2022-12-29T12:14:45;9.80;;;4.38;;
25649;SDS011;13505;45.196;5.696;2022-12-29T12:19:57;25.67;;;6.60;;
25649;SDS011;13505;45.196;5.696;2022-12-29T12:25:04;15.77;;;5.85;;
25649;SDS011;13505;45.196;5.696;2022-12-29T12:30:04;14.80;;;5.60;;
25649;SDS011;13505;45.196;5.696;2022-12-29T12:34:59;9.80;;;5.15;;
25649;SDS011;13505;45.196;5.696;2022-12-29T12:40:02;14.35;;;5.78;;
25649;SDS011;13505;45.196;5.696;2022-12-29T12:55:35;13.85;;;5.30;;
25649;SDS011;13505;45.196;5.696;2022-12-29T13:00:53;8.75;;;4.38;;
25649;SDS011;13505;45.196;5.696;2022-12-29T13:21:24;13.20;;;5.80;;
25649;SDS011;13505;45.196;5.696;2022-12-29T13:26:35;13.90;;;6.63;;
25649;SDS011;13505;45.196;5.696;2022-12-29T13:37:26;10.35;;;4.38;;
25649;SDS011;13505;45.196;5.696;2022-12-29T13:42:18;10.27;;;4.40;;
25649;SDS011;13505;45.196;5.696;2022-12-29T13:47:16;15.38;;;4.88;;
25649;SDS011;13505;45.196;5.696;2022-12-29T13:52:18;9.70;;;4.35;;
25649;SDS011;13505;45.196;5.696;2022-12-29T14:02:50;13.18;;;4.57;;
25649;SDS011;13505;45.196;5.696;2022-12-29T14:07:47;9.85;;;4.30;;
25649;SDS011;13505;45.196;5.696;2022-12-29T14:12:46;8.40;;;4.03;;
25649;SDS011;13505;45.196;5.696;2022-12-29T14:17:39;9.63;;;4.50;;
25649;SDS011;13505;45.196;5.696;2022-12-29T14:22:31;7.97;;;4.30;;
25649;SDS011;13505;45.196;5.696;2022-12-29T14:37:22;7.70;;;4.25;;
25649;SDS011;13505;45.196;5.696;2022-12-29T14:42:19;16.00;;;8.20;;
25649;SDS011;13505;45.196;5.696;2022-12-29T14:47:16;12.20;;;4.82;;
25649;SDS011;13505;45.196;5.696;2022-12-29T14:52:15;9.85;;;5.03;;
25649;SDS011;13505;45.196;5.696;2022-12-29T14:57:18;11.02;;;4.13;;
25649;SDS011;13505;45.196;5.696;2022-12-29T15:02:44;8.50;;;4.80;;
25649;SDS011;13505;45.196;5.696;2022-12-29T15:07:38;11.02;;;4.72;;
25649;SDS011;13505;45.196;5.696;2022-12-29T15:12:37;8.52;;;4.28;;
25649;SDS011;13505;45.196;5.696;2022-12-29T15:17:32;10.00;;;3.92;;
25649;SDS011;13505;45.196;5.696;2022-12-29T15:22:24;9.52;;;4.40;;
25649;SDS011;13505;45.196;5.696;2022-12-29T15:27:16;13.63;;;4.97;;
25649;SDS011;13505;45.196;5.696;2022-12-29T15:37:09;13.45;;;4.72;;
25649;SDS011;13505;45.196;5.696;2022-12-29T15:42:00;16.88;;;4.97;;
25649;SDS011;13505;45.196;5.696;2022-12-29T15:46:57;11.68;;;4.95;;
25649;SDS011;13505;45.196;5.696;2022-12-29T15:51:48;12.43;;;5.80;;
25649;SDS011;13505;45.196;5.696;2022-12-29T15:56:39;16.02;;;6.78;;
25649;SDS011;13505;45.196;5.696;2022-12-29T16:01:32;14.77;;;6.22;;
25649;SDS011;13505;45.196;5.696;2022-12-29T16:11:22;11.40;;;5.97;;
25649;SDS011;13505;45.196;5.696;2022-12-29T16:16:20;12.90;;;6.68;;
25649;SDS011;13505;45.196;5.696;2022-12-29T16:21:26;17.33;;;8.88;;
25649;SDS011;13505;45.196;5.696;2022-12-29T16:26:21;15.68;;;8.35;;
25649;SDS011;13505;45.196;5.696;2022-12-29T16:36:22;18.38;;;7.05;;
25649;SDS011;13505;45.196;5.696;2022-12-29T16:41:30;18.80;;;7.28;;
25649;SDS011;13505;45.196;5.696;2022-12-29T16:46:24;15.65;;;7.30;;
25649;SDS011;13505;45.196;5.696;2022-12-29T16:51:21;17.23;;;7.20;;
25649;SDS011;13505;45.196;5.696;2022-12-29T16:56:20;17.17;;;7.20;;
25649;SDS011;13505;45.196;5.696;2022-12-29T17:01:13;16.05;;;7.78;;
25649;SDS011;13505;45.196;5.696;2022-12-29T17:06:16;16.00;;;8.20;;
25649;SDS011;13505;45.196;5.696;2022-12-29T17:11:15;15.10;;;7.30;;
25649;SDS011;13505;45.196;5.696;2022-12-29T17:16:37;21.17;;;9.68;;
25649;SDS011;13505;45.196;5.696;2022-12-29T17:21:27;18.63;;;7.15;;
25649;SDS011;13505;45.196;5.696;2022-12-29T17:26:18;13.80;;;7.73;;
25649;SDS011;13505;45.196;5.696;2022-12-29T17:31:08;18.02;;;7.60;;
25649;SDS011;13505;45.196;5.696;2022-12-29T17:36:00;16.77;;;8.07;;
25649;SDS011;13505;45.196;5.696;2022-12-29T17:40:50;25.00;;;9.73;;
25649;SDS011;13505;45.196;5.696;2022-12-29T17:45:41;19.70;;;11.93;;
25649;SDS011;13505;45.196;5.696;2022-12-29T17:50:33;20.67;;;10.20;;
25649;SDS011;13505;45.196;5.696;2022-12-29T17:55:23;19.80;;;9.57;;
25649;SDS011;13505;45.196;5.696;2022-12-29T18:00:15;18.10;;;9.82;;
25649;SDS011;13505;45.196;5.696;2022-12-29T18:05:12;22.23;;;10.52;;
25649;SDS011;13505;45.196;5.696;2022-12-29T18:10:06;21.58;;;11.90;;
25649;SDS011;13505;45.196;5.696;2022-12-29T18:14:58;25.77;;;14.10;;
25649;SDS011;13505;45.196;5.696;2022-12-29T18:19:48;25.70;;;10.82;;
25649;SDS011;13505;45.196;5.696;2022-12-29T18:24:41;21.63;;;11.10;;
25649;SDS011;13505;45.196;5.696;2022-12-29T18:29:31;20.70;;;10.98;;
25649;SDS011;13505;45.196;5.696;2022-12-29T18:34:23;22.75;;;10.90;;
25649;SDS011;13505;45.196;5.696;2022-12-29T18:39:13;24.80;;;11.37;;
25649;SDS011;13505;45.196;5.696;2022-12-29T18:44:03;22.20;;;12.30;;
25649;SDS011;13505;45.196;5.696;2022-12-29T18:48:54;26.23;;;13.45;;
25649;SDS011;13505;45.196;5.696;2022-12-29T18:53:44;26.83;;;13.55;;
25649;SDS011;13505;45.196;5.696;2022-12-29T18:58:35;20.60;;;11.63;;
25649;SDS011;13505;45.196;5.696;2022-12-29T19:03:26;26.35;;;11.88;;
25649;SDS011;13505;45.196;5.696;2022-12-29T19:08:17;25.60;;;13.75;;
25649;SDS011;13505;45.196;5.696;2022-12-29T19:13:10;27.88;;;12.73;;
25649;SDS011;13505;45.196;5.696;2022-12-29T19:18:05;32.40;;;12.32;;
25649;SDS011;13505;45.196;5.696;2022-12-29T19:22:57;21.80;;;10.63;;
25649;SDS011;13505;45.196;5.696;2022-12-29T19:27:49;21.92;;;9.77;;
25649;SDS011;13505;45.196;5.696;2022-12-29T19:32:40;19.42;;;9.98;;
25649;SDS011;13505;45.196;5.696;2022-12-29T19:37:30;17.92;;;8.80;;
25649;SDS011;13505;45.196;5.696;2022-12-29T19:42:21;23.48;;;9.60;;
25649;SDS011;13505;45.196;5.696;2022-12-29T19:47:11;24.47;;;10.63;;
25649;SDS011;13505;45.196;5.696;2022-12-29T19:52:02;17.25;;;9.73;;
25649;SDS011;13505;45.196;5.696;2022-12-29T19:56:53;17.25;;;8.88;;
25649;SDS011;13505;45.196;5.696;2022-12-29T20:01:43;19.10;;;9.88;;
25649;SDS011;13505;45.196;5.696;2022-12-29T20:06:34;20.42;;;9.75;;
25649;SDS011;13505;45.196;5.696;2022-12-29T20:11:24;17.17;;;10.07;;
25649;SDS011;13505;45.196;5.696;2022-12-29T20:16:15;23.85;;;10.77;;
25649;SDS011;13505;45.196;5.696;2022-12-29T20:21:09;21.83;;;10.90;;
25649;SDS011;13505;45.196;5.696;2022-12-29T20:26:02;20.98;;;11.05;;
25649;SDS011;13505;45.196;5.696;2022-12-29T20:30:54;27.67;;;15.98;;
25649;SDS011;13505;45.196;5.696;2022-12-29T20:35:52;24.90;;;12.20;;
25649;SDS011;13505;45.196;5.696;2022-12-29T20:40:43;34.78;;;17.42;;
25649;SDS011;13505;45.196;5.696;2022-12-29T20:45:35;30.15;;;15.60;;
25649;SDS011;13505;45.196;5.696;2022-12-29T20:50:25;19.58;;;11.52;;
25649;SDS011;13505;45.196;5.696;2022-12-29T20:55:16;18.95;;;10.88;;
25649;SDS011;13505;45.196;5.696;2022-12-29T21:00:06;19.58;;;10.55;;
25649;SDS011;13505;45.196;5.696;2022-12-29T21:04:59;19.60;;;11.27;;
25649;SDS011;13505;45.196;5.696;2022-12-29T21:09:50;25.13;;;13.43;;
25649;SDS011;13505;45.196;5.696;2022-12-29T21:14:40;23.10;;;12.10;;
25649;SDS011;13505;45.196;5.696;2022-12-29T21:19:30;22.67;;;11.60;;
25649;SDS011;13505;45.196;5.696;2022-12-29T21:24:21;19.45;;;10.18;;
25649;SDS011;13505;45.196;5.696;2022-12-29T21:29:11;17.23;;;10.13;;
25649;SDS011;13505;45.196;5.696;2022-12-29T21:34:02;21.27;;;10.73;;
25649;SDS011;13505;45.196;5.696;2022-12-29T21:38:54;18.60;;;9.90;;
25649;SDS011;13505;45.196;5.696;2022-12-29T21:43:47;17.70;;;10.18;;
25649;SDS011;13505;45.196;5.696;2022-12-29T21:48:57;20.55;;;10.32;;
25649;SDS011;13505;45.196;5.696;2022-12-29T21:53:53;19.13;;;8.93;;
25649;SDS011;13505;45.196;5.696;2022-12-29T21:59:07;17.08;;;8.88;;
25649;SDS011;13505;45.196;5.696;2022-12-29T22:04:16;16.17;;;9.25;;
25649;SDS011;13505;45.196;5.696;2022-12-29T22:09:28;18.27;;;9.10;;
25649;SDS011;13505;45.196;5.696;2022-12-29T22:14:37;16.35;;;9.05;;
25649;SDS011;13505;45.196;5.696;2022-12-29T22:19:27;18.67;;;8.77;;
25649;SDS011;13505;45.196;5.696;2022-12-29T22:24:18;14.95;;;8.65;;
25649;SDS011;13505;45.196;5.696;2022-12-29T22:29:08;17.53;;;8.90;;
25649;SDS011;13505;45.196;5.696;2022-12-29T22:33:59;15.68;;;8.18;;
25649;SDS011;13505;45.196;5.696;2022-12-29T22:38:50;16.05;;;8.43;;
25649;SDS011;13505;45.196;5.696;2022-12-29T22:43:41;17.05;;;8.73;;
25649;SDS011;13505;45.196;5.696;2022-12-29T22:48:32;19.13;;;10.57;;
25649;SDS011;13505;45.196;5.696;2022-12-29T22:53:23;27.08;;;12.00;;
25649;SDS011;13505;45.196;5.696;2022-12-29T22:58:13;24.15;;;12.55;;
